KMWO/MWO METAR and TAF weather

Enter ICAO airport designator
Station Type Date Time Source
KMWO METAR 2019/02/22 22:55 UTC NOAA

KMWO 222255Z AUTO 07007KT 10SM CLR 04/M02 A3036 RMK AO2 T00451019


Station Type Date Time Source
KMWO Decoded METAR 2019/02/22 22:55 UTC NOAA

Station name not available
Feb 22, 2019 - 05:55 PM EST / 2019.02.22 2255 UTC
Wind: from the ENE (070 degrees) at 8 MPH (7 KT):0
Visibility: 10 mile(s):0
Sky conditions: clear
Temperature: 40.1 F (4.5 C)
Dew Point: 28.6 F (-1.9 C)
Relative Humidity: 63%
Pressure (altimeter): 30.36 in. Hg (1028 hPa)
ob: KMWO 222255Z AUTO 07007KT 10SM CLR 04/M02 A3036 RMK AO2 T00451019
cycle: 23

Station Type Date Time Source
KMWO TAF UTC NOAA

Error!


Example: see airport list